createdAt,value
2018-07-22T00:01:39.732Z,17.50
2018-07-22T00:04:09.893Z,17.50
2018-07-22T00:06:40.062Z,17.50
2018-07-22T00:09:12.413Z,17.50
2018-07-22T00:11:42.653Z,17.50
2018-07-22T00:14:12.825Z,17.50
2018-07-22T00:16:43.120Z,17.50
2018-07-22T00:19:13.191Z,17.40
2018-07-22T00:21:43.564Z,17.30
2018-07-22T00:24:13.668Z,17.10
2018-07-22T00:26:44.220Z,17.00
2018-07-22T00:29:14.481Z,17.00
2018-07-22T00:31:44.582Z,16.90
2018-07-22T00:34:14.789Z,16.80
2018-07-22T00:36:44.953Z,16.70
2018-07-22T00:39:17.318Z,16.70
2018-07-22T00:44:18.008Z,16.60
2018-07-22T00:46:48.117Z,16.50
2018-07-22T00:49:18.266Z,16.60
2018-07-22T00:51:48.420Z,16.60
2018-07-22T00:54:18.545Z,16.60
2018-07-22T00:56:48.712Z,16.60
2018-07-22T00:59:19.192Z,16.50
2018-07-22T01:01:49.324Z,16.50
2018-07-22T01:04:19.367Z,16.40
2018-07-22T01:06:49.489Z,16.40
2018-07-22T01:09:19.607Z,16.40
2018-07-22T01:11:49.791Z,16.30
2018-07-22T01:14:19.892Z,16.30
2018-07-22T01:16:50.016Z,16.20
2018-07-22T01:19:20.212Z,16.20
2018-07-22T01:21:50.373Z,16.20
2018-07-22T01:24:20.492Z,16.30
2018-07-22T01:26:50.613Z,16.30
2018-07-22T01:29:20.703Z,16.40
2018-07-22T01:31:50.816Z,16.30
2018-07-22T01:34:20.853Z,16.30
2018-07-22T01:36:50.977Z,16.40
2018-07-22T01:39:21.008Z,16.40
2018-07-22T01:41:51.113Z,16.30
2018-07-22T01:44:21.444Z,16.30
2018-07-22T01:46:51.601Z,16.30
2018-07-22T01:49:21.669Z,16.30
2018-07-22T01:51:51.789Z,16.30
2018-07-22T01:54:21.853Z,16.30
2018-07-22T01:59:21.956Z,16.20
2018-07-22T02:01:52.103Z,16.20
2018-07-22T02:04:22.144Z,16.10
2018-07-22T02:06:52.266Z,16.10
2018-07-22T02:09:22.416Z,16.00
2018-07-22T02:11:52.543Z,16.00
2018-07-22T02:14:22.868Z,16.00
2018-07-22T02:16:53.021Z,16.00
2018-07-22T02:19:23.052Z,15.90
2018-07-22T02:21:53.507Z,15.90
2018-07-22T02:24:23.562Z,15.80
2018-07-22T02:26:53.669Z,15.80
2018-07-22T02:29:23.932Z,15.80
2018-07-22T02:31:54.095Z,15.80
2018-07-22T02:34:24.224Z,15.80
2018-07-22T02:36:54.410Z,15.80
2018-07-22T02:39:24.545Z,15.80
2018-07-22T02:41:54.624Z,15.90
2018-07-22T02:44:24.749Z,15.80
2018-07-22T02:49:24.985Z,15.70
2018-07-22T02:51:55.281Z,15.70
2018-07-22T02:54:25.308Z,15.70
2018-07-22T02:56:55.405Z,15.70
2018-07-22T02:59:25.509Z,15.70
2018-07-22T03:01:55.924Z,15.70
2018-07-22T03:04:25.985Z,15.60
2018-07-22T03:06:56.123Z,15.60
2018-07-22T03:09:26.157Z,15.60
2018-07-22T03:11:56.292Z,15.60
2018-07-22T03:14:26.413Z,15.60
2018-07-22T03:16:56.881Z,15.70
2018-07-22T03:19:26.920Z,15.70
2018-07-22T03:24:26.437Z,15.70
2018-07-22T03:29:26.139Z,15.60
2018-07-22T03:31:56.220Z,15.60
2018-07-22T03:34:26.358Z,15.60
2018-07-22T03:36:56.484Z,15.60
2018-07-22T03:39:26.513Z,15.50
2018-07-22T03:41:56.632Z,15.40
2018-07-22T03:44:26.666Z,15.40
2018-07-22T03:46:56.787Z,15.40
2018-07-22T03:49:26.888Z,15.40
2018-07-22T03:51:57.024Z,15.40
2018-07-22T03:54:27.304Z,15.70
2018-07-22T03:56:57.420Z,15.80
2018-07-22T03:59:27.537Z,15.90
2018-07-22T04:01:57.617Z,16.00
2018-07-22T04:06:57.107Z,16.20
2018-07-22T04:09:27.171Z,16.30
2018-07-22T04:11:57.605Z,16.30
2018-07-22T04:14:27.752Z,16.40
2018-07-22T04:16:58.253Z,16.50
2018-07-22T04:19:28.351Z,16.50
2018-07-22T04:21:58.505Z,16.60
2018-07-22T04:24:28.615Z,16.60
2018-07-22T04:26:58.834Z,16.70
2018-07-22T04:29:28.935Z,16.80
2018-07-22T04:31:59.085Z,16.90
2018-07-22T04:34:29.157Z,16.90
2018-07-22T04:36:59.323Z,16.90
2018-07-22T04:39:29.377Z,16.70
2018-07-22T04:41:59.546Z,16.50
2018-07-22T04:44:29.723Z,16.40
2018-07-22T04:47:00.017Z,16.40
2018-07-22T04:49:30.120Z,16.40
2018-07-22T04:52:00.435Z,16.30
2018-07-22T04:54:30.569Z,16.40
2018-07-22T04:57:00.700Z,16.50
2018-07-22T04:59:30.876Z,16.70
2018-07-22T05:02:01.057Z,16.90
2018-07-22T05:04:31.196Z,17.30
2018-07-22T05:07:01.281Z,17.60
2018-07-22T05:09:31.405Z,17.80
2018-07-22T05:12:01.537Z,18.00
2018-07-22T05:14:31.673Z,18.00
2018-07-22T05:17:01.769Z,18.10
2018-07-22T05:19:31.952Z,18.10
2018-07-22T05:22:02.085Z,18.10
2018-07-22T05:24:32.185Z,18.10
2018-07-22T05:27:02.341Z,18.10
2018-07-22T05:29:32.444Z,18.20
2018-07-22T05:32:02.564Z,18.30
2018-07-22T05:34:32.636Z,18.40
2018-07-22T05:37:03.146Z,18.50
2018-07-22T05:39:33.285Z,18.70
2018-07-22T05:42:03.618Z,18.70
2018-07-22T05:44:33.698Z,18.80
2018-07-22T05:47:04.054Z,18.90
2018-07-22T05:49:34.155Z,19.00
2018-07-22T05:52:04.411Z,19.00
2018-07-22T05:54:34.785Z,19.10
2018-07-22T05:57:04.912Z,19.20
2018-07-22T05:59:34.935Z,19.30
2018-07-22T06:02:05.173Z,19.30
2018-07-22T06:07:05.001Z,19.40
2018-07-22T06:12:04.769Z,19.70
2018-07-22T06:14:34.937Z,19.70
2018-07-22T06:17:05.292Z,19.80
2018-07-22T06:22:05.080Z,19.90
2018-07-22T06:24:35.192Z,20.00
2018-07-22T06:27:05.589Z,20.10
2018-07-22T06:29:35.694Z,20.20
2018-07-22T06:32:06.002Z,20.30
2018-07-22T06:34:36.073Z,20.50
2018-07-22T06:37:06.196Z,20.70
2018-07-22T06:39:36.292Z,20.80
2018-07-22T06:42:06.469Z,21.00
2018-07-22T06:44:36.545Z,21.10
2018-07-22T06:47:07.251Z,21.20
2018-07-22T06:49:37.433Z,21.40
2018-07-22T06:52:07.555Z,21.50
2018-07-22T06:54:37.615Z,21.50
2018-07-22T06:57:08.205Z,21.50
2018-07-22T07:02:16.359Z,21.60
2018-07-22T07:04:47.650Z,21.70
2018-07-22T07:07:18.045Z,21.70
2018-07-22T07:09:48.164Z,21.80
2018-07-22T07:12:18.300Z,21.90
2018-07-22T07:14:48.516Z,21.90
2018-07-22T07:17:18.653Z,22.00
2018-07-22T07:19:48.785Z,22.10
2018-07-22T07:24:48.836Z,22.20
2018-07-22T07:27:18.924Z,22.20
2018-07-22T07:29:49.068Z,22.30
2018-07-22T07:32:19.205Z,22.40
2018-07-22T07:34:49.356Z,22.50
2018-07-22T07:37:19.552Z,22.50
2018-07-22T07:39:49.596Z,22.50
2018-07-22T07:42:19.712Z,22.60
2018-07-22T07:44:50.165Z,22.70
2018-07-22T07:47:20.325Z,22.80
2018-07-22T07:49:50.460Z,22.90
2018-07-22T07:52:20.585Z,23.00
2018-07-22T07:54:50.661Z,22.80
2018-07-22T07:57:21.124Z,22.90
2018-07-22T07:59:53.840Z,23.00
2018-07-22T08:02:25.880Z,23.10
2018-07-22T08:04:56.361Z,23.20
2018-07-22T08:07:26.623Z,23.30
2018-07-22T08:09:56.793Z,23.20
2018-07-22T08:12:26.980Z,23.20
2018-07-22T08:14:57.251Z,23.30
2018-07-22T08:17:27.452Z,23.50
2018-07-22T08:19:57.653Z,23.60
2018-07-22T08:22:27.896Z,23.60
2018-07-22T08:24:58.041Z,23.60
2018-07-22T08:27:28.192Z,23.60
2018-07-22T08:29:58.324Z,23.60
2018-07-22T08:32:28.467Z,23.60
2018-07-22T08:34:58.663Z,23.70
2018-07-22T08:37:28.800Z,23.70
2018-07-22T08:39:58.949Z,23.70
2018-07-22T08:42:29.126Z,23.80
2018-07-22T08:44:59.314Z,23.80
2018-07-22T08:47:30.125Z,23.90
2018-07-22T08:50:01.258Z,23.90
2018-07-22T08:52:31.428Z,24.00
2018-07-22T08:55:01.560Z,23.80
2018-07-22T08:57:31.710Z,24.00
2018-07-22T09:02:31.273Z,24.30
2018-07-22T09:05:01.387Z,24.40
2018-07-22T09:07:31.549Z,24.40
2018-07-22T09:10:01.674Z,24.40
2018-07-22T09:12:31.804Z,24.40
2018-07-22T09:15:01.963Z,24.40
2018-07-22T09:17:32.073Z,24.40
2018-07-22T09:20:02.184Z,24.40
2018-07-22T09:25:18.370Z,24.50
2018-07-22T09:27:48.517Z,24.50
2018-07-22T09:30:18.649Z,24.40
2018-07-22T09:32:48.952Z,24.40
2018-07-22T09:37:48.744Z,24.60
2018-07-22T09:40:18.911Z,24.50
2018-07-22T09:42:49.044Z,24.70
2018-07-22T09:45:19.155Z,24.80
2018-07-22T09:47:49.268Z,24.90
2018-07-22T09:50:19.396Z,25.00
2018-07-22T09:52:49.572Z,25.10
2018-07-22T09:55:19.682Z,25.00
2018-07-22T09:57:49.842Z,25.00
2018-07-22T10:00:24.937Z,25.20
2018-07-22T10:02:55.077Z,25.30
2018-07-22T10:05:25.199Z,25.50
2018-07-22T10:07:55.296Z,25.40
2018-07-22T10:10:25.439Z,25.50
2018-07-22T10:12:55.658Z,25.40
2018-07-22T10:15:25.703Z,25.40
2018-07-22T10:17:55.873Z,25.50
2018-07-22T10:20:26.124Z,25.40
2018-07-22T10:22:56.257Z,25.50
2018-07-22T10:25:26.413Z,25.60
2018-07-22T10:27:56.537Z,25.80
2018-07-22T10:30:26.669Z,25.90
2018-07-22T10:32:56.833Z,26.10
2018-07-22T10:35:26.997Z,26.20
2018-07-22T10:37:57.160Z,26.20
2018-07-22T10:42:56.965Z,26.40
2018-07-22T10:45:27.141Z,26.50
2018-07-22T10:47:57.317Z,26.50
2018-07-22T10:50:27.460Z,26.40
2018-07-22T10:52:57.588Z,26.60
2018-07-22T10:57:57.358Z,26.40
2018-07-22T11:00:27.527Z,26.40
2018-07-22T11:02:58.021Z,26.60
2018-07-22T11:05:28.172Z,26.40
2018-07-22T11:07:58.303Z,26.40
2018-07-22T11:12:57.877Z,26.80
2018-07-22T11:15:28.177Z,27.20
2018-07-22T11:17:58.484Z,27.70
2018-07-22T11:20:28.601Z,28.20
2018-07-22T11:22:58.748Z,28.40
2018-07-22T11:25:28.881Z,28.40
2018-07-22T11:27:59.030Z,28.40
2018-07-22T11:30:29.184Z,27.90
2018-07-22T11:32:59.328Z,28.10
2018-07-22T11:35:29.496Z,28.40
2018-07-22T11:40:29.264Z,28.80
2018-07-22T11:42:59.372Z,29.30
2018-07-22T11:45:29.432Z,29.90
2018-07-22T11:48:00.084Z,29.50
2018-07-22T11:50:30.258Z,29.70
2018-07-22T11:53:00.404Z,29.40
2018-07-22T11:55:30.533Z,29.50
2018-07-22T11:58:00.661Z,30.40
2018-07-22T12:00:30.750Z,30.40
2018-07-22T12:03:01.001Z,30.90
2018-07-22T12:05:31.104Z,30.70
2018-07-22T12:08:01.202Z,30.00
2018-07-22T12:10:31.238Z,30.30
2018-07-22T12:13:01.315Z,30.40
2018-07-22T12:15:31.427Z,29.80
2018-07-22T12:18:01.575Z,30.40
2018-07-22T12:20:31.783Z,30.90
2018-07-22T12:23:01.845Z,31.80
2018-07-22T12:25:31.961Z,31.70
2018-07-22T12:28:02.273Z,31.70
2018-07-22T12:30:32.369Z,32.00
2018-07-22T12:33:02.458Z,31.60
2018-07-22T12:35:32.485Z,31.00
2018-07-22T12:38:02.675Z,31.30
2018-07-22T12:40:32.823Z,31.80
2018-07-22T12:43:02.990Z,31.80
2018-07-22T12:45:33.124Z,31.60
2018-07-22T12:48:03.266Z,31.70
2018-07-22T12:50:33.304Z,33.10
2018-07-22T12:53:03.461Z,33.50
2018-07-22T12:55:33.585Z,33.30
2018-07-22T12:58:03.741Z,33.50
2018-07-22T13:00:34.013Z,34.10
2018-07-22T13:03:04.206Z,34.60
2018-07-22T13:05:34.705Z,34.00
2018-07-22T13:08:04.955Z,34.00
2018-07-22T13:10:35.157Z,33.70
2018-07-22T13:15:35.005Z,33.60
2018-07-22T13:18:05.209Z,34.30
2018-07-22T13:20:35.347Z,34.40
2018-07-22T13:23:05.567Z,33.90
2018-07-22T13:25:35.737Z,33.20
2018-07-22T13:28:06.069Z,34.10
2018-07-22T13:30:36.171Z,35.10
2018-07-22T13:33:06.469Z,34.70
2018-07-22T13:35:36.637Z,32.60
2018-07-22T13:38:06.888Z,31.50
2018-07-22T13:40:36.991Z,31.20
2018-07-22T13:43:07.673Z,31.80
2018-07-22T13:45:37.879Z,32.40
2018-07-22T13:48:08.030Z,33.80
2018-07-22T13:50:38.168Z,34.20
2018-07-22T13:53:08.324Z,35.30
2018-07-22T13:55:38.468Z,36.00
2018-07-22T13:58:08.621Z,35.20
2018-07-22T14:00:38.951Z,33.80
2018-07-22T14:03:09.226Z,33.90
2018-07-22T14:05:39.360Z,32.90
2018-07-22T14:08:09.503Z,31.50
2018-07-22T14:10:39.630Z,31.10
2018-07-22T14:13:09.812Z,30.00
2018-07-22T14:15:40.048Z,29.00
2018-07-22T14:18:10.429Z,28.80
2018-07-22T14:20:40.822Z,29.80
2018-07-22T14:23:10.968Z,30.60
2018-07-22T14:28:10.745Z,31.00
2018-07-22T14:30:40.916Z,31.40
2018-07-22T14:33:11.269Z,31.40
2018-07-22T14:35:41.405Z,31.60
2018-07-22T14:38:11.542Z,31.50
2018-07-22T14:40:41.896Z,32.40
2018-07-22T14:43:12.044Z,33.40
2018-07-22T14:45:42.127Z,33.70
2018-07-22T14:48:12.659Z,33.80
2018-07-22T14:50:42.768Z,33.20
2018-07-22T14:53:12.933Z,32.50
2018-07-22T14:55:43.049Z,31.70
2018-07-22T14:58:13.193Z,31.40
2018-07-22T15:00:43.296Z,31.40
2018-07-22T15:03:13.560Z,32.00
2018-07-22T15:05:43.680Z,31.50
2018-07-22T15:08:13.840Z,31.40
2018-07-22T15:10:43.985Z,31.50
2018-07-22T15:13:14.409Z,32.10
2018-07-22T15:15:44.514Z,32.00
2018-07-22T15:18:14.709Z,31.80
2018-07-22T15:20:45.031Z,31.10
2018-07-22T15:23:15.217Z,30.20
2018-07-22T15:25:45.708Z,29.40
2018-07-22T15:28:16.037Z,30.50
2018-07-22T15:30:46.279Z,31.40
2018-07-22T15:33:16.361Z,32.30
2018-07-22T15:35:46.565Z,32.20
2018-07-22T15:38:16.716Z,31.30
2018-07-22T16:05:58.031Z,29.20
2018-07-22T16:10:58.101Z,29.10
2018-07-22T16:13:28.221Z,29.30
2018-07-22T16:15:58.496Z,29.50
2018-07-22T16:18:28.648Z,29.60
2018-07-22T16:20:58.756Z,30.00
2018-07-22T16:23:28.924Z,29.90
2018-07-22T16:25:59.097Z,29.50
2018-07-22T16:28:29.229Z,29.40
2018-07-22T16:30:59.536Z,29.80
2018-07-22T16:33:29.636Z,30.10
2018-07-22T16:35:59.898Z,30.00
2018-07-22T16:38:30.217Z,29.70
2018-07-22T16:41:00.691Z,29.40
2018-07-22T16:43:30.828Z,29.00
2018-07-22T16:46:01.269Z,28.80
2018-07-22T16:51:00.804Z,29.00
2018-07-22T16:53:31.106Z,29.00
2018-07-22T16:56:01.208Z,29.50
2018-07-22T16:58:31.313Z,29.80
2018-07-22T17:01:01.438Z,29.90
2018-07-22T17:03:31.600Z,29.70
2018-07-22T17:06:01.716Z,29.60
2018-07-22T17:08:32.297Z,29.20
2018-07-22T17:11:02.469Z,29.00
2018-07-22T17:13:33.016Z,29.00
2018-07-22T17:16:03.192Z,28.80
2018-07-22T17:18:33.362Z,28.50
2018-07-22T17:21:03.509Z,28.60
2018-07-22T17:23:33.720Z,28.70
2018-07-22T17:26:03.892Z,28.40
2018-07-22T17:28:34.307Z,28.70
2018-07-22T17:31:04.645Z,28.50
2018-07-22T17:33:34.805Z,28.40
2018-07-22T17:36:07.810Z,28.30
2018-07-22T17:38:41.065Z,27.90
2018-07-22T17:41:11.457Z,27.50
2018-07-22T17:43:41.788Z,27.40
2018-07-22T17:46:12.168Z,27.40
2018-07-22T17:48:42.302Z,27.40
2018-07-22T17:51:12.474Z,27.40
2018-07-22T17:53:42.649Z,27.20
2018-07-22T17:56:13.036Z,27.10
2018-07-22T17:58:43.512Z,27.10
2018-07-22T18:01:13.880Z,26.90
2018-07-22T18:03:44.260Z,26.90
2018-07-22T18:06:14.505Z,26.70
2018-07-22T18:08:44.807Z,26.40
2018-07-22T18:11:15.055Z,26.20
2018-07-22T18:13:45.241Z,25.90
2018-07-22T18:16:15.497Z,25.70
2018-07-22T18:18:46.101Z,25.40
2018-07-22T18:21:16.336Z,25.20
2018-07-22T18:23:46.518Z,25.00
2018-07-22T18:26:16.713Z,24.80
2018-07-22T18:28:46.962Z,24.60
2018-07-22T18:31:17.242Z,24.40
2018-07-22T18:33:54.386Z,24.20
2018-07-22T18:36:24.569Z,23.90
2018-07-22T18:39:08.245Z,23.60
2018-07-22T18:41:38.668Z,23.50
2018-07-22T18:44:22.692Z,23.20
2018-07-22T18:46:52.840Z,23.10
2018-07-22T18:52:05.809Z,22.80
2018-07-22T18:55:01.598Z,22.60
2018-07-22T18:57:32.055Z,22.50
2018-07-22T19:00:11.633Z,22.40
2018-07-22T19:02:42.221Z,22.30
2018-07-22T19:05:25.325Z,22.30
2018-07-22T19:07:55.497Z,22.30
2018-07-22T19:10:39.183Z,22.20
2018-07-22T19:13:09.279Z,22.10
2018-07-22T19:15:53.077Z,22.00
2018-07-22T19:18:23.196Z,21.90
2018-07-22T19:20:55.826Z,21.80
2018-07-22T19:23:38.027Z,21.70
2018-07-22T19:26:10.819Z,21.70
2018-07-22T19:28:52.423Z,21.60
2018-07-22T19:31:22.513Z,21.50
2018-07-22T19:34:00.916Z,21.50
2018-07-22T19:36:30.996Z,21.40
2018-07-22T19:39:01.145Z,21.40
2018-07-22T19:41:31.417Z,21.30
2018-07-22T19:44:01.574Z,21.30
2018-07-22T19:46:31.699Z,21.20
2018-07-22T19:49:20.421Z,21.20
2018-07-22T19:51:50.538Z,21.10
2018-07-22T19:54:20.718Z,21.10
2018-07-22T19:56:50.850Z,21.00
2018-07-22T19:59:21.149Z,20.90
2018-07-22T20:01:51.239Z,20.90
2018-07-22T20:48:03.331Z,20.80
2018-07-22T20:50:34.246Z,20.20
2018-07-22T20:53:04.402Z,20.20
2018-07-22T20:55:34.480Z,20.10
2018-07-22T20:58:04.588Z,20.10
2018-07-22T21:00:36.418Z,20.10
2018-07-22T21:03:06.645Z,20.10
2018-07-22T21:05:50.509Z,20.10
2018-07-22T21:08:20.622Z,20.10
2018-07-22T21:11:05.214Z,20.00
2018-07-22T21:13:36.722Z,20.00
2018-07-22T21:16:20.345Z,20.00
2018-07-22T21:18:50.421Z,19.90
2018-07-22T21:21:34.790Z,19.80
2018-07-22T21:24:05.043Z,19.80
2018-07-22T21:26:49.009Z,19.80
2018-07-22T21:29:19.133Z,19.80
2018-07-22T21:34:33.164Z,19.80
2018-07-22T21:37:05.708Z,19.80
2018-07-22T21:39:46.964Z,19.80
2018-07-22T21:44:46.410Z,19.70
2018-07-22T21:47:16.567Z,19.60
2018-07-22T21:49:46.654Z,19.60
2018-07-22T21:52:17.001Z,19.60
2018-07-22T21:54:47.167Z,19.50
2018-07-22T21:57:17.672Z,19.50
2018-07-22T21:59:47.959Z,19.50
2018-07-22T22:02:18.046Z,19.40
2018-07-22T22:04:50.908Z,19.40
2018-07-22T22:07:20.986Z,19.40
2018-07-22T22:09:51.135Z,19.40
2018-07-22T22:12:21.476Z,19.40
2018-07-22T22:14:51.626Z,19.40
2018-07-22T22:17:21.743Z,19.40
2018-07-22T22:19:51.913Z,19.40
2018-07-22T22:22:22.040Z,19.30
2018-07-22T22:24:52.994Z,19.30
2018-07-22T22:27:23.198Z,19.30
2018-07-22T22:29:53.432Z,19.20
2018-07-22T22:32:23.526Z,19.20
2018-07-22T22:35:06.950Z,19.20
2018-07-22T22:37:37.070Z,19.20
2018-07-22T22:40:18.574Z,19.10
2018-07-22T22:42:48.613Z,19.10
2018-07-22T22:45:32.965Z,19.20
2018-07-22T22:48:03.127Z,19.20
2018-07-22T22:50:44.958Z,19.20
2018-07-22T22:53:14.994Z,19.20
2018-07-22T22:55:56.718Z,19.20
2018-07-22T22:58:37.498Z,19.10
2018-07-22T23:01:12.236Z,19.00
2018-07-22T23:03:42.267Z,19.00
2018-07-22T23:06:24.556Z,19.00
2018-07-22T23:08:54.638Z,19.00
2018-07-22T23:11:38.975Z,19.10
2018-07-22T23:14:09.082Z,19.10
2018-07-22T23:16:51.650Z,19.00
2018-07-22T23:19:21.683Z,18.90
2018-07-22T23:22:08.105Z,18.90
2018-07-22T23:24:38.139Z,18.90
2018-07-22T23:27:19.942Z,18.90
2018-07-22T23:29:50.021Z,18.90
2018-07-22T23:32:37.509Z,18.80
2018-07-22T23:35:07.560Z,18.80
2018-07-22T23:37:49.313Z,18.80
2018-07-22T23:40:19.742Z,18.70
2018-07-22T23:43:04.042Z,18.60
2018-07-22T23:45:34.086Z,18.60
2018-07-22T23:48:18.738Z,18.60
2018-07-22T23:50:48.798Z,18.60
2018-07-22T23:53:34.433Z,18.60
2018-07-22T23:56:04.629Z,18.60
2018-07-22T23:58:44.463Z,18.60
